Goshen, New York
Current Conditions -  °F | °C
As of 9:54 AM on Thursday 23 Oct 2014 (Local Time) from KMGJ Reporting Station
Light Rain Light Rain  
Wind Chill:   Ceiling: 700
Heat Index:   Visibility: 10mi
Dew Point:   Wind: 7mph
Humidity: 90%   Direction: 30°NNE
Pressure: 29.76"   Gusts: NA
Location:  41.41°N, 74.32°W
Report Text: KMGJ 231354Z AUTO 03006KT 10SM -RA BKN007 BKN026 OVC035 09/08 A2976 RMK AO2 SLP077 P0002 T00940078 TSNO
Loading
Personal Weather Stations






























Interactive Weather Map
Tropical Storm Tracking
New forecast layout! Learn more

10-Day Weather Forecast

Advertisements
Track Severe Weather on mobile